KVGT/VGT METAR and TAF weather

Enter ICAO airport designator
Station Type Date Time Source
KVGT METAR 2022/05/26 05:53 UTC NOAA

KVGT 260553Z AUTO 29005KT 10SM CLR 29/01 A2983 RMK AO2 SLP087 T02940006 10372 20294 51012


Station Type Date Time Source
KVGT Decoded METAR 2022/05/26 05:53 UTC NOAA

NORTH LAS VEGAS, NV, United States (KVGT) 36-12N 115-11W
May 26, 2022 - 01:53 AM EDT / 2022.05.26 0553 UTC
Wind: from the WNW (290 degrees) at 6 MPH (5 KT):0
Visibility: 10 mile(s):0
Sky conditions: clear
Temperature: 84.9 F (29.4 C)
Dew Point: 33.1 F (0.6 C)
Relative Humidity: 15%
Pressure (altimeter): 29.83 in. Hg (1010 hPa)
Pressure tendency: 0.04 inches (1.2 hPa) higher than three hours ago
ob: KVGT 260553Z AUTO 29005KT 10SM CLR 29/01 A2983 RMK AO2 SLP087 T02940006 10372 20294 51012
cycle: 6

Station Type Date Time Source
KVGT TAF 2022/05/26 06:22 UTC NOAA

TAF KVGT 260520Z 2606/2706 VRB05KT P6SM FEW250
FM261600 14007KT P6SM FEW250
FM261900 17015G25KT P6SM FEW250
FM270100 22015G25KT P6SM FEW250

Example: see airport list